createdAt,value
2022-09-05T00:00:57.765Z,100322.78
2022-09-05T00:03:58.126Z,100277.81
2022-09-05T00:06:45.966Z,100331.09
2022-09-05T00:09:42.061Z,100266.13
2022-09-05T00:12:12.194Z,100311.25
2022-09-05T00:15:18.994Z,100326.16
2022-09-05T00:20:55.125Z,100318.44
2022-09-05T00:24:37.782Z,100319.84
2022-09-05T00:24:42.031Z,100325.63
2022-09-05T00:27:51.041Z,100319.13
2022-09-05T00:31:06.958Z,100309.00
2022-09-05T00:33:18.548Z,100322.63
2022-09-05T00:36:18.485Z,100316.97
2022-09-05T00:39:03.792Z,100318.50
2022-09-05T00:41:34.540Z,100312.59
2022-09-05T00:44:04.715Z,100324.38
2022-09-05T00:46:43.799Z,100308.59
2022-09-05T00:49:27.985Z,100271.72
2022-09-05T00:52:06.855Z,100316.41
2022-09-05T00:55:11.542Z,100321.44
2022-09-05T00:58:35.843Z,100303.97
2022-09-05T01:01:26.175Z,100257.69
2022-09-05T01:04:43.343Z,100311.66
2022-09-05T01:07:23.829Z,100319.47
2022-09-05T01:10:23.620Z,100309.47
2022-09-05T01:13:29.676Z,100311.38
2022-09-05T01:16:27.101Z,100313.22
2022-09-05T01:19:16.055Z,100328.63
2022-09-05T01:22:03.447Z,100319.78
2022-09-05T01:24:43.834Z,100319.38
2022-09-05T01:28:36.991Z,100319.00
2022-09-05T01:31:23.876Z,100325.13
2022-09-05T01:34:01.218Z,100303.91
2022-09-05T01:37:32.890Z,100315.53
2022-09-05T01:40:26.701Z,100346.09
2022-09-05T01:43:23.893Z,100298.06
2022-09-05T01:46:35.258Z,100330.44
2022-09-05T01:49:41.032Z,100330.75
2022-09-05T01:52:38.903Z,100337.69
2022-09-05T01:56:06.421Z,100336.53
2022-09-05T01:59:09.398Z,100338.59
2022-09-05T02:02:14.841Z,100339.72
2022-09-05T02:05:47.218Z,100343.72
2022-09-05T02:08:54.063Z,100336.81
2022-09-05T02:12:21.668Z,100333.69
2022-09-05T02:15:05.073Z,100302.97
2022-09-05T02:17:49.525Z,100339.97
2022-09-05T02:20:43.830Z,100339.97
2022-09-05T02:23:25.996Z,100346.59
2022-09-05T02:26:29.904Z,100335.84
2022-09-05T02:29:29.878Z,100343.00
2022-09-05T02:32:19.805Z,100344.69
2022-09-05T02:35:13.761Z,100344.94
2022-09-05T02:40:44.227Z,100342.69
2022-09-05T02:45:10.694Z,100328.31
2022-09-05T02:45:23.937Z,100323.84
2022-09-05T02:47:47.374Z,100350.19
2022-09-05T02:57:23.209Z,100346.53
2022-09-05T02:57:35.241Z,100351.03
2022-09-05T02:57:40.975Z,100344.28
2022-09-05T03:00:12.003Z,100307.34
2022-09-05T03:03:17.565Z,100344.03
2022-09-05T03:06:34.462Z,100350.31
2022-09-05T03:09:34.352Z,100350.56
2022-09-05T03:12:55.926Z,100349.84
2022-09-05T03:15:54.798Z,100356.13
2022-09-05T03:18:46.590Z,100357.47
2022-09-05T03:21:54.832Z,100355.78
2022-09-05T03:25:41.388Z,100363.97
2022-09-05T03:28:21.503Z,100371.72
2022-09-05T03:31:49.407Z,100360.38
2022-09-05T03:34:31.192Z,100366.63
2022-09-05T03:37:25.418Z,100323.16
2022-09-05T03:40:27.315Z,100367.22
2022-09-05T03:43:26.210Z,100373.75
2022-09-05T03:46:17.759Z,100380.03
2022-09-05T03:53:11.467Z,100375.94
2022-09-05T03:57:08.812Z,100330.59
2022-09-05T03:57:24.261Z,100397.66
2022-09-05T03:59:07.082Z,100345.06
2022-09-05T04:04:03.700Z,100390.03
2022-09-05T04:08:17.614Z,100389.66
2022-09-05T04:08:32.098Z,100391.84
2022-09-05T04:11:10.345Z,100422.03
2022-09-05T04:13:41.161Z,100405.97
2022-09-05T04:16:28.806Z,100369.13
2022-09-05T04:19:43.627Z,100408.75
2022-09-05T04:23:03.872Z,100416.28
2022-09-05T04:26:11.559Z,100413.00
2022-09-05T04:29:11.173Z,100420.66
2022-09-05T04:32:18.053Z,100416.88
2022-09-05T04:35:22.624Z,100422.59
2022-09-05T04:38:16.262Z,100433.22
2022-09-05T04:41:00.444Z,100423.31
2022-09-05T04:43:36.177Z,100424.06
2022-09-05T04:46:48.522Z,100433.97
2022-09-05T04:49:40.017Z,100432.41
2022-09-05T04:52:37.685Z,100451.00
2022-09-05T04:55:14.237Z,100437.19
2022-09-05T04:57:53.046Z,100450.41
2022-09-05T05:05:58.655Z,100443.50
2022-09-05T05:06:19.101Z,100452.69
2022-09-05T05:06:44.454Z,100451.06
2022-09-05T05:09:27.617Z,100454.88
2022-09-05T05:18:03.478Z,100454.78
2022-09-05T05:18:15.974Z,100446.09
2022-09-05T05:18:53.352Z,100441.34
2022-09-05T05:21:28.987Z,100431.28
2022-09-05T05:24:05.004Z,100458.47
2022-09-05T05:27:02.926Z,100413.19
2022-09-05T05:29:38.276Z,100458.50
2022-09-05T05:32:07.900Z,100431.91
2022-09-05T05:34:48.884Z,100458.34
2022-09-05T05:37:43.518Z,100426.84
2022-09-05T05:40:17.584Z,100465.63
2022-09-05T05:42:46.982Z,100421.06
2022-09-05T05:45:29.155Z,100460.13
2022-09-05T05:48:08.681Z,100469.06
2022-09-05T05:51:34.742Z,100470.94
2022-09-05T05:54:50.471Z,100475.84
2022-09-05T05:58:15.499Z,100475.84
2022-09-05T06:01:38.741Z,100479.44
2022-09-05T06:04:25.863Z,100485.75
2022-09-05T06:08:12.222Z,100478.72
2022-09-05T06:14:49.881Z,100484.44
2022-09-05T06:14:57.363Z,100485.66
2022-09-05T06:17:37.600Z,100490.41
2022-09-05T06:22:04.075Z,100465.97
2022-09-05T06:23:55.572Z,100487.75
2022-09-05T06:26:46.499Z,100488.53
2022-09-05T06:29:56.186Z,100499.09
2022-09-05T06:32:40.225Z,100459.94
2022-09-05T06:35:54.321Z,100492.03
2022-09-05T06:38:58.513Z,100482.56
2022-09-05T06:42:03.332Z,100494.53
2022-09-05T06:44:40.538Z,100501.53
2022-09-05T06:47:23.881Z,100502.50
2022-09-05T06:50:24.560Z,100509.97
2022-09-05T06:53:30.936Z,100512.69
2022-09-05T06:56:26.122Z,100517.69
2022-09-05T06:59:19.011Z,100498.16
2022-09-05T07:02:23.870Z,100526.13
2022-09-05T07:05:40.307Z,100529.81
2022-09-05T07:08:34.805Z,100545.44
2022-09-05T07:11:25.459Z,100443.88
2022-09-05T07:14:21.717Z,100529.09
2022-09-05T07:17:53.829Z,100532.44
2022-09-05T07:21:16.001Z,100529.19
2022-09-05T07:24:06.177Z,100534.66
2022-09-05T07:26:54.757Z,100497.47
2022-09-05T07:29:35.793Z,100523.72
2022-09-05T07:32:08.365Z,100520.59
2022-09-05T07:34:38.523Z,100519.00
2022-09-05T07:37:44.520Z,100521.19
2022-09-05T07:40:25.072Z,100527.56
2022-09-05T07:43:35.573Z,100528.41
2022-09-05T07:46:23.673Z,100524.19
2022-09-05T07:49:16.354Z,100528.25
2022-09-05T07:56:43.946Z,100538.50
2022-09-05T07:57:03.722Z,100506.88
2022-09-05T07:57:51.432Z,100499.25
2022-09-05T08:00:29.683Z,100509.34
2022-09-05T08:03:08.388Z,100534.00
2022-09-05T08:05:48.154Z,100499.00
2022-09-05T08:08:24.629Z,100535.72
2022-09-05T08:11:24.842Z,100515.94
2022-09-05T08:14:44.315Z,100524.91
2022-09-05T08:16:53.127Z,100520.41
2022-09-05T08:20:08.919Z,100533.41
2022-09-05T08:23:07.411Z,100529.91
2022-09-05T08:25:58.769Z,100475.34
2022-09-05T08:28:45.355Z,100533.56
2022-09-05T08:31:21.990Z,100475.00
2022-09-05T08:33:56.979Z,100514.56
2022-09-05T08:36:36.630Z,100472.56
2022-09-05T08:39:07.728Z,100525.13
2022-09-05T08:42:39.240Z,100513.00
2022-09-05T08:46:40.345Z,100512.63
2022-09-05T08:48:48.182Z,100508.63
2022-09-05T08:51:26.023Z,100513.50
2022-09-05T08:54:27.410Z,100507.97
2022-09-05T08:57:39.924Z,100514.31
2022-09-05T09:00:19.214Z,100502.56
2022-09-05T09:03:52.177Z,100513.94
2022-09-05T09:06:45.327Z,100510.09
2022-09-05T09:09:54.585Z,100510.44
2022-09-05T09:12:58.808Z,100507.47
2022-09-05T09:16:11.139Z,100502.53
2022-09-05T09:19:04.726Z,100492.28
2022-09-05T09:22:34.971Z,100491.25
2022-09-05T09:25:31.844Z,100441.94
2022-09-05T09:28:49.832Z,100489.44
2022-09-05T09:31:40.016Z,100483.94
2022-09-05T09:34:26.526Z,100484.34
2022-09-05T09:37:50.801Z,100484.34
2022-09-05T09:40:29.003Z,100485.47
2022-09-05T09:43:28.160Z,100431.00
2022-09-05T09:46:41.546Z,100469.66
2022-09-05T09:49:31.172Z,100483.53
2022-09-05T09:52:20.681Z,100487.28
2022-09-05T09:55:23.969Z,100472.00
2022-09-05T09:58:01.284Z,100476.50
2022-09-05T10:00:51.795Z,100467.91
2022-09-05T10:07:26.915Z,100466.78
2022-09-05T10:10:43.933Z,100433.19
2022-09-05T10:10:54.224Z,100469.78
2022-09-05T10:13:08.743Z,100464.75
2022-09-05T10:16:25.810Z,100454.91
2022-09-05T10:23:15.832Z,100440.28
2022-09-05T10:26:22.314Z,100439.41
2022-09-05T10:29:17.043Z,100445.06
2022-09-05T10:35:08.048Z,100442.78
2022-09-05T10:35:09.931Z,100391.03
2022-09-05T10:38:10.150Z,100435.22
2022-09-05T10:40:46.332Z,100407.31
2022-09-05T10:43:43.610Z,100350.22
2022-09-05T10:46:53.039Z,100441.97
2022-09-05T10:49:30.962Z,100434.91
2022-09-05T10:52:37.669Z,100389.63
2022-09-05T10:55:15.124Z,100425.63
2022-09-05T10:58:12.854Z,100347.75
2022-09-05T11:02:27.453Z,100379.56
2022-09-05T11:05:07.540Z,100413.84
2022-09-05T11:08:11.898Z,100416.75
2022-09-05T11:11:08.131Z,100414.72
2022-09-05T11:13:57.817Z,100381.34
2022-09-05T11:16:52.377Z,100423.78
2022-09-05T11:19:30.084Z,100396.34
2022-09-05T11:22:22.362Z,100415.16
2022-09-05T11:25:03.429Z,100400.00
2022-09-05T11:27:44.370Z,100411.81
2022-09-05T11:30:38.100Z,100369.59
2022-09-05T11:39:48.260Z,100404.19
2022-09-05T11:40:10.360Z,100398.00
2022-09-05T11:40:28.409Z,100399.69
2022-09-05T11:43:35.942Z,100403.31
2022-09-05T11:46:25.453Z,100397.84
2022-09-05T11:49:14.688Z,100397.50
2022-09-05T11:52:22.615Z,100387.94
2022-09-05T11:55:20.862Z,100312.31
2022-09-05T11:58:44.908Z,100403.91
2022-09-05T12:01:42.419Z,100342.28
2022-09-05T12:04:31.507Z,100396.22
2022-09-05T12:07:26.270Z,100389.22
2022-09-05T12:10:46.799Z,100392.59
2022-09-05T12:13:33.694Z,100349.44
2022-09-05T12:16:10.366Z,100343.75
2022-09-05T12:18:56.699Z,100332.34
2022-09-05T12:22:16.442Z,100366.75
2022-09-05T12:26:17.340Z,100360.81
2022-09-05T12:28:54.634Z,100331.41
2022-09-05T12:33:17.519Z,100351.47
2022-09-05T12:36:04.423Z,100355.78
2022-09-05T12:40:51.989Z,100336.47
2022-09-05T12:41:43.842Z,100366.13
2022-09-05T12:44:42.679Z,100358.16
2022-09-05T12:47:20.578Z,100315.81
2022-09-05T12:50:15.023Z,100366.16
2022-09-05T12:52:51.763Z,100284.19
2022-09-05T12:56:20.500Z,100353.06
2022-09-05T13:02:56.792Z,100348.31
2022-09-05T13:03:14.368Z,100350.31
2022-09-05T13:05:02.363Z,100348.59
2022-09-05T13:07:56.425Z,100345.81
2022-09-05T13:14:24.300Z,100352.94
2022-09-05T13:15:02.404Z,100350.00
2022-09-05T13:16:42.825Z,100350.31
2022-09-05T13:19:31.423Z,100346.91
2022-09-05T13:22:02.890Z,100344.78
2022-09-05T13:24:39.020Z,100328.19
2022-09-05T13:27:25.170Z,100342.72
2022-09-05T13:34:44.428Z,100327.09
2022-09-05T13:38:05.153Z,100292.66
2022-09-05T13:38:21.303Z,100303.00
2022-09-05T13:39:09.905Z,100294.81
2022-09-05T13:41:49.211Z,100346.03
2022-09-05T13:44:25.408Z,100306.50
2022-09-05T13:47:28.849Z,100341.91
2022-09-05T13:50:24.173Z,100334.44
2022-09-05T13:53:26.959Z,100287.88
2022-09-05T13:56:03.747Z,100330.31
2022-09-05T13:58:56.570Z,100322.72
2022-09-05T14:01:58.711Z,100325.06
2022-09-05T14:05:19.485Z,100322.44
2022-09-05T14:08:33.755Z,100330.03
2022-09-05T14:11:41.150Z,100316.84
2022-09-05T14:15:13.512Z,100320.81
2022-09-05T14:18:21.197Z,100320.72
2022-09-05T14:21:19.431Z,100259.09
2022-09-05T14:24:27.528Z,100312.22
2022-09-05T14:27:00.645Z,100313.81
2022-09-05T14:29:49.671Z,100311.91
2022-09-05T14:37:37.130Z,100311.50
2022-09-05T14:37:44.747Z,100304.31
2022-09-05T14:38:59.462Z,100299.19
2022-09-05T14:42:07.672Z,100304.97
2022-09-05T14:44:58.153Z,100304.53
2022-09-05T14:48:02.561Z,100294.31
2022-09-05T14:50:40.992Z,100300.69
2022-09-05T14:57:23.090Z,100298.78
2022-09-05T15:02:42.474Z,100297.44
2022-09-05T15:02:54.232Z,100284.19
2022-09-05T15:05:23.308Z,100252.84
2022-09-05T15:08:10.422Z,100291.75
2022-09-05T15:12:15.503Z,100296.00
2022-09-05T15:14:11.299Z,100249.16
2022-09-05T15:16:45.867Z,100279.09
2022-09-05T15:20:06.464Z,100294.97
2022-09-05T15:22:43.362Z,100297.16
2022-09-05T15:25:28.044Z,100246.06
2022-09-05T15:27:56.570Z,100246.31
2022-09-05T15:30:36.518Z,100255.28
2022-09-05T15:33:36.389Z,100282.13
2022-09-05T15:36:06.895Z,100280.81
2022-09-05T15:38:55.234Z,100296.34
2022-09-05T15:41:29.655Z,100290.97
2022-09-05T15:44:09.996Z,100247.53
2022-09-05T15:46:49.423Z,100207.22
2022-09-05T15:49:55.988Z,100290.22
2022-09-05T15:52:29.157Z,100291.41
2022-09-05T15:55:22.616Z,100273.78
2022-09-05T15:58:05.912Z,100281.41
2022-09-05T16:00:34.328Z,100290.59
2022-09-05T16:05:53.355Z,100254.88
2022-09-05T16:10:36.593Z,100282.06
2022-09-05T16:10:38.136Z,100282.50
2022-09-05T16:12:16.628Z,100246.38
2022-09-05T16:16:33.684Z,100231.53
2022-09-05T16:23:14.245Z,100287.31
2022-09-05T16:23:33.323Z,100280.94
2022-09-05T16:24:11.603Z,100272.75
2022-09-05T16:26:49.179Z,100277.28
2022-09-05T16:29:27.115Z,100203.84
2022-09-05T16:32:05.538Z,100280.78
2022-09-05T16:35:01.481Z,100277.72
2022-09-05T16:38:11.548Z,100274.16
2022-09-05T16:40:48.587Z,100274.72
2022-09-05T16:43:27.105Z,100277.63
2022-09-05T16:46:07.092Z,100279.88
2022-09-05T16:49:12.052Z,100277.91
2022-09-05T16:52:17.256Z,100282.19
2022-09-05T16:54:58.739Z,100282.72
2022-09-05T16:57:38.038Z,100281.66
2022-09-05T17:00:10.028Z,100273.38
2022-09-05T17:03:28.665Z,100273.69
2022-09-05T17:06:29.369Z,100198.06
2022-09-05T17:09:21.372Z,100285.59
2022-09-05T17:12:00.693Z,100278.31
2022-09-05T17:14:54.343Z,100274.88
2022-09-05T17:18:19.126Z,100284.69
2022-09-05T17:20:29.614Z,100249.00
2022-09-05T17:29:17.074Z,100273.88
2022-09-05T17:29:33.325Z,100238.25
2022-09-05T17:29:35.288Z,100283.28
2022-09-05T17:31:55.580Z,100273.50
2022-09-05T17:35:00.041Z,100195.84
2022-09-05T17:38:21.482Z,100283.00
2022-09-05T17:41:12.209Z,100289.50
2022-09-05T17:43:41.639Z,100282.25
2022-09-05T17:46:26.566Z,100290.03
2022-09-05T17:49:19.420Z,100293.31
2022-09-05T17:51:53.925Z,100294.59
2022-09-05T17:54:32.200Z,100286.75
2022-09-05T17:57:28.660Z,100302.44
2022-09-05T18:00:12.021Z,100307.13
2022-09-05T18:02:56.570Z,100295.28
2022-09-05T18:06:05.805Z,100242.78
2022-09-05T18:08:46.450Z,100296.50
2022-09-05T18:11:25.485Z,100294.66
2022-09-05T18:14:24.614Z,100295.16
2022-09-05T18:17:36.410Z,100290.03
2022-09-05T18:19:49.351Z,100305.69
2022-09-05T18:22:28.129Z,100242.28
2022-09-05T18:25:30.867Z,100296.91
2022-09-05T18:28:31.652Z,100304.41
2022-09-05T18:31:40.728Z,100307.69
2022-09-05T18:34:16.625Z,100301.38
2022-09-05T18:36:57.051Z,100309.25
2022-09-05T18:39:29.450Z,100316.28
2022-09-05T18:42:33.388Z,100310.78
2022-09-05T18:45:16.514Z,100311.38
2022-09-05T18:47:59.212Z,100254.69
2022-09-05T18:50:37.604Z,100253.56
2022-09-05T18:53:12.994Z,100298.81
2022-09-05T18:56:20.232Z,100306.00
2022-09-05T18:59:24.295Z,100306.03
2022-09-05T19:02:03.162Z,100295.09
2022-09-05T19:05:01.373Z,100305.63
2022-09-05T19:07:41.014Z,100303.13
2022-09-05T19:10:36.075Z,100294.28
2022-09-05T19:13:28.719Z,100295.09
2022-09-05T19:16:43.315Z,100296.34
2022-09-05T19:19:24.916Z,100298.84
2022-09-05T19:22:36.074Z,100293.78
2022-09-05T19:24:51.873Z,100299.13
2022-09-05T19:28:55.508Z,100298.22
2022-09-05T19:36:50.326Z,100277.13
2022-09-05T19:37:03.613Z,100297.72
2022-09-05T19:37:06.620Z,100293.25
2022-09-05T19:43:24.145Z,100259.22
2022-09-05T19:47:29.585Z,100249.28
2022-09-05T19:47:47.527Z,100281.00
2022-09-05T19:48:07.556Z,100300.69
2022-09-05T19:50:36.383Z,100288.78
2022-09-05T19:53:08.751Z,100283.25
2022-09-05T19:55:39.267Z,100291.53
2022-09-05T19:58:20.764Z,100294.94
2022-09-05T20:01:02.211Z,100291.50
2022-09-05T20:03:39.129Z,100167.91
2022-09-05T20:06:29.875Z,100296.88
2022-09-05T20:09:19.366Z,100290.00
2022-09-05T20:12:00.247Z,100293.88
2022-09-05T20:14:32.412Z,100246.00
2022-09-05T20:17:27.966Z,100291.88
2022-09-05T20:20:18.149Z,100250.72
2022-09-05T20:23:09.846Z,100294.22
2022-09-05T20:25:47.464Z,100281.78
2022-09-05T20:28:23.869Z,100291.34
2022-09-05T20:31:00.570Z,100294.34
2022-09-05T20:33:55.542Z,100295.47
2022-09-05T20:43:12.540Z,100244.31
2022-09-05T20:43:20.651Z,100233.69
2022-09-05T20:43:24.417Z,100291.59
2022-09-05T20:46:05.234Z,100300.94
2022-09-05T20:54:05.272Z,100284.47
2022-09-05T20:54:18.230Z,100242.84
2022-09-05T20:54:39.498Z,100298.41
2022-09-05T20:57:17.836Z,100298.88
2022-09-05T20:59:47.601Z,100302.97
2022-09-05T21:02:32.546Z,100303.25
2022-09-05T21:05:21.051Z,100297.66
2022-09-05T21:08:06.883Z,100296.31
2022-09-05T21:10:54.913Z,100292.72
2022-09-05T21:13:30.205Z,100288.72
2022-09-05T21:15:59.093Z,100286.88
2022-09-05T21:18:33.773Z,100291.09
2022-09-05T21:21:27.935Z,100293.25
2022-09-05T21:24:16.858Z,100313.47
2022-09-05T21:26:49.172Z,100309.25
2022-09-05T21:29:27.401Z,100305.63
2022-09-05T21:32:02.649Z,100311.44
2022-09-05T21:34:48.611Z,100263.19
2022-09-05T21:37:18.309Z,100305.50
2022-09-05T21:39:59.191Z,100301.00
2022-09-05T21:44:10.514Z,100262.44
2022-09-05T21:47:42.997Z,100270.88
2022-09-05T21:48:17.216Z,100320.88
2022-09-05T21:50:54.476Z,100268.78
2022-09-05T21:56:37.315Z,100306.69
2022-09-05T21:59:24.478Z,100321.16
2022-09-05T21:59:45.391Z,100303.94
2022-09-05T22:02:17.154Z,100265.34
2022-09-05T22:04:47.410Z,100318.47
2022-09-05T22:07:31.663Z,100308.81
2022-09-05T22:10:04.439Z,100326.03
2022-09-05T22:12:39.268Z,100308.09
2022-09-05T22:15:27.493Z,100272.28
2022-09-05T22:18:17.067Z,100319.16
2022-09-05T22:21:31.914Z,100310.19
2022-09-05T22:23:47.184Z,100314.75
2022-09-05T22:26:17.821Z,100269.31
2022-09-05T22:28:49.661Z,100317.44
2022-09-05T22:31:19.527Z,100329.00
2022-09-05T22:33:50.845Z,100286.13
2022-09-05T22:36:19.951Z,100330.41
2022-09-05T22:38:48.444Z,100332.94
2022-09-05T22:41:17.167Z,100287.94
2022-09-05T22:43:46.686Z,100333.56
2022-09-05T22:46:15.405Z,100333.97
2022-09-05T22:48:43.778Z,100319.97
2022-09-05T22:51:12.515Z,100286.13
2022-09-05T22:53:40.752Z,100325.28
2022-09-05T22:56:10.570Z,100276.41
2022-09-05T22:58:45.983Z,100332.69
2022-09-05T23:01:14.426Z,100326.66
2022-09-05T23:03:43.018Z,100284.03
2022-09-05T23:06:11.538Z,100304.59
2022-09-05T23:08:40.461Z,100338.56
2022-09-05T23:11:11.876Z,100325.97
2022-09-05T23:13:42.065Z,100325.88
2022-09-05T23:16:11.981Z,100329.81
2022-09-05T23:18:41.253Z,100330.09
2022-09-05T23:21:20.102Z,100332.56
2022-09-05T23:23:49.202Z,100320.19
2022-09-05T23:26:18.057Z,100312.13
2022-09-05T23:28:46.383Z,100328.53
2022-09-05T23:31:14.783Z,100278.44
2022-09-05T23:33:43.444Z,100293.69
2022-09-05T23:36:14.467Z,100323.97
2022-09-05T23:38:45.466Z,100321.00
2022-09-05T23:41:16.058Z,100330.97
2022-09-05T23:43:44.263Z,100326.63
2022-09-05T23:46:12.512Z,100318.38
2022-09-05T23:48:41.236Z,100275.28
2022-09-05T23:51:12.221Z,100326.63
2022-09-05T23:53:41.214Z,100311.28
2022-09-05T23:56:11.344Z,100275.38
2022-09-05T23:58:40.232Z,100317.28
